Time;durP1;ratioP1;P1;durP2;ratioP2;P2;SDS_P1;SDS_P2;PMS_P1;PMS_P2;Temp;Humidity;BMP_temperature;BMP_pressure;BME280_temperature;BME280_humidity;BME280_pressure;Samples;Min_cycle;Max_cycle;Signal;HPM_P1;HPM_P2
2022/03/04 00:00:23;;;;;;;17.67;16.13;;;;;;;-0.04;59.33;98745.84;4134134;28;20595;-49
2022/03/04 00:02:25;;;;;;;15.00;13.50;;;;;;;-0.07;59.49;98740.84;4109517;28;20289;-48
2022/03/04 00:04:28;;;;;;;14.33;13.07;;;;;;;-0.08;59.48;98742.88;4121080;28;20582;-48
2022/03/04 00:06:29;;;;;;;15.43;14.03;;;;;;;-0.09;59.27;98743.91;4110651;28;20203;-48
2022/03/04 00:08:31;;;;;;;15.57;14.03;;;;;;;-0.09;59.63;98747.41;4135062;28;20713;-48
2022/03/04 00:10:34;;;;;;;14.97;13.57;;;;;;;-0.15;59.48;98744.59;4135694;28;20224;-49
2022/03/04 00:12:36;;;;;;;15.23;14.03;;;;;;;-0.22;59.75;98746.31;4120257;28;20213;-48
2022/03/04 00:14:38;;;;;;;15.47;13.87;;;;;;;-0.27;59.56;98748.69;4122823;28;20206;-48
2022/03/04 00:16:41;;;;;;;17.40;14.50;;;;;;;-0.30;59.73;98744.50;4120042;28;20294;-49
2022/03/04 00:18:43;;;;;;;14.03;12.87;;;;;;;-0.31;59.86;98752.75;4120339;28;20223;-50
2022/03/04 00:20:45;;;;;;;16.60;15.10;;;;;;;-0.34;59.95;98743.19;4136778;28;20577;-48
2022/03/04 00:22:47;;;;;;;16.30;14.73;;;;;;;-0.33;59.68;98752.09;4118160;28;20210;-49
2022/03/04 00:24:50;;;;;;;16.63;15.13;;;;;;;-0.39;59.97;98750.09;4120886;28;20211;-49
2022/03/04 00:26:52;;;;;;;14.50;13.10;;;;;;;-0.40;60.09;98748.44;4120111;28;20258;-49
2022/03/04 00:28:54;;;;;;;16.60;14.90;;;;;;;-0.38;60.06;98751.78;4103602;28;20261;-48
2022/03/04 00:30:56;;;;;;;15.17;13.73;;;;;;;-0.38;60.43;98752.63;4134582;28;20225;-48
2022/03/04 00:32:58;;;;;;;15.17;13.87;;;;;;;-0.41;60.48;98746.75;4122779;28;20207;-48
2022/03/04 00:35:01;;;;;;;16.13;14.73;;;;;;;-0.45;60.63;98756.19;4106703;28;20243;-48
2022/03/04 00:37:03;;;;;;;13.73;12.33;;;;;;;-0.42;60.61;98761.22;4105739;28;20256;-48
2022/03/04 00:39:10;;;;;;;19.30;16.73;;;;;;;-0.40;60.26;98760.00;4118316;28;20229;-49
2022/03/04 00:41:12;;;;;;;15.23;13.73;;;;;;;-0.44;60.38;98763.22;4106859;28;20239;-48
2022/03/04 00:43:14;;;;;;;16.30;14.77;;;;;;;-0.45;60.38;98766.94;4120372;28;20214;-49
2022/03/04 00:45:15;;;;;;;15.53;14.03;;;;;;;-0.40;60.54;98768.06;4134325;28;20220;-46
2022/03/04 00:47:17;;;;;;;14.33;13.13;;;;;;;-0.41;60.31;98762.88;4110790;28;20207;-47
2022/03/04 00:49:19;;;;;;;14.93;13.53;;;;;;;-0.40;60.53;98754.63;4100812;28;20203;-49
2022/03/04 00:51:21;;;;;;;15.30;14.10;;;;;;;-0.47;60.72;98750.97;4119743;28;20573;-48
2022/03/04 00:53:22;;;;;;;15.17;13.87;;;;;;;-0.53;60.63;98754.38;4135831;28;20281;-48
2022/03/04 00:55:24;;;;;;;15.17;13.57;;;;;;;-0.58;60.42;98751.38;4110605;28;20211;-48
2022/03/04 00:57:27;;;;;;;15.30;13.90;;;;;;;-0.62;60.77;98750.03;4135337;28;20202;-49
2022/03/04 00:59:29;;;;;;;17.17;15.37;;;;;;;-0.60;60.77;98752.56;4119518;28;20233;-48
2022/03/04 01:01:30;;;;;;;15.17;13.77;;;;;;;-0.58;60.98;98753.22;4111198;28;20266;-48
2022/03/04 01:03:33;;;;;;;15.40;13.23;;;;;;;-0.53;60.69;98748.16;4110224;28;20214;-48
2022/03/04 01:05:37;;;;;;;14.40;12.50;;;;;;;-0.53;60.53;98750.84;4122419;28;20218;-49
2022/03/04 01:07:39;;;;;;;15.53;14.17;;;;;;;-0.53;60.69;98748.16;4136968;28;20728;-48
2022/03/04 01:09:42;;;;;;;13.93;12.53;;;;;;;-0.55;61.10;98752.88;4122896;28;20483;-49
2022/03/04 01:11:44;;;;;;;13.23;12.13;;;;;;;-0.54;60.85;98757.25;4136105;28;20229;-48
2022/03/04 01:13:45;;;;;;;13.37;12.13;;;;;;;-0.56;60.66;98759.28;4105769;28;20217;-48
2022/03/04 01:15:47;;;;;;;16.10;14.60;;;;;;;-0.59;60.52;98752.41;4136934;28;20214;-48
2022/03/04 01:17:49;;;;;;;15.47;13.90;;;;;;;-0.60;60.82;98763.31;4102549;28;20694;-48
2022/03/04 01:19:51;;;;;;;17.20;15.53;;;;;;;-0.65;61.07;98754.91;4113879;28;20257;-48
2022/03/04 01:21:56;;;;;;;16.97;15.57;;;;;;;-0.69;60.93;98746.38;4125320;28;20211;-49
2022/03/04 01:23:57;;;;;;;17.27;15.43;;;;;;;-0.76;60.85;98752.59;4107008;28;20691;-48
2022/03/04 01:25:59;;;;;;;15.87;14.37;;;;;;;-0.84;60.80;98744.56;4107607;28;20269;-48
2022/03/04 01:28:01;;;;;;;14.90;13.50;;;;;;;-0.90;61.19;98746.13;4105845;28;20231;-48
2022/03/04 01:30:05;;;;;;;15.13;13.53;;;;;;;-0.95;61.26;98747.66;4120688;28;20206;-48
2022/03/04 01:32:07;;;;;;;15.53;13.93;;;;;;;-0.97;61.36;98744.28;4112116;28;20214;-49
2022/03/04 01:34:09;;;;;;;16.03;14.53;;;;;;;-0.94;61.39;98735.91;4105003;28;20739;-48
2022/03/04 01:36:11;;;;;;;15.87;14.50;;;;;;;-0.91;61.57;98743.59;4135774;28;20224;-48
2022/03/04 01:38:14;;;;;;;17.13;14.40;;;;;;;-0.94;62.02;98749.31;4118988;28;20700;-48
2022/03/04 01:40:16;;;;;;;17.10;15.43;;;;;;;-1.01;62.22;98746.47;4137199;28;20222;-48
2022/03/04 01:42:17;;;;;;;14.40;13.00;;;;;;;-0.97;61.92;98744.28;4112304;28;20198;-48
2022/03/04 01:44:19;;;;;;;16.43;15.00;;;;;;;-0.95;61.83;98743.09;4129375;28;20222;-47
2022/03/04 01:46:27;;;;;;;12.27;11.10;;;;;;;-0.94;62.08;98735.91;4124220;28;20237;-47
2022/03/04 01:48:29;;;;;;;14.70;13.50;;;;;;;-0.94;62.04;98743.97;4114027;28;20749;-48
2022/03/04 01:50:32;;;;;;;14.23;13.00;;;;;;;-0.98;61.69;98738.09;4105869;28;20206;-48
2022/03/04 01:52:33;;;;;;;15.47;14.03;;;;;;;-0.97;61.41;98744.28;4134308;28;20213;-48
2022/03/04 01:54:35;;;;;;;14.57;13.17;;;;;;;-0.99;61.93;98740.94;4109007;28;20257;-48
2022/03/04 01:56:37;;;;;;;16.00;13.30;;;;;;;-1.00;61.81;98739.28;4124023;28;20277;-48
2022/03/04 01:58:39;;;;;;;14.83;13.67;;;;;;;-0.97;61.78;98742.44;4108288;28;20357;-48
2022/03/04 02:00:41;;;;;;;16.63;13.37;;;;;;;-1.00;61.74;98747.31;4101987;28;20340;-48
2022/03/04 02:02:44;;;;;;;13.60;12.40;;;;;;;-1.02;61.46;98741.31;4121156;28;20210;-48
2022/03/04 02:04:49;;;;;;;14.97;13.77;;;;;;;-1.02;61.54;98746.66;4120264;28;20218;-48
2022/03/04 02:06:51;;;;;;;15.73;14.13;;;;;;;-1.04;61.79;98743.28;4134266;28;20206;-50
2022/03/04 02:08:53;;;;;;;14.70;13.30;;;;;;;-1.09;61.69;98751.06;4121177;28;20238;-48
2022/03/04 02:10:55;;;;;;;15.57;14.17;;;;;;;-1.13;62.17;98749.72;4111451;28;20603;-48
2022/03/04 02:12:56;;;;;;;15.97;14.50;;;;;;;-1.18;61.79;98752.06;4105606;28;20211;-48
2022/03/04 02:14:58;;;;;;;14.67;13.33;;;;;;;-1.21;62.02;98747.03;4135765;28;20205;-47
2022/03/04 02:17:00;;;;;;;15.63;14.27;;;;;;;-1.27;62.05;98748.53;4105811;28;20684;-48
2022/03/04 02:19:03;;;;;;;15.47;14.20;;;;;;;-1.29;62.00;98755.13;4135263;28;20238;-48
2022/03/04 02:21:08;;;;;;;13.80;12.73;;;;;;;-1.30;62.32;98753.41;4120858;28;20278;-47
2022/03/04 02:23:12;;;;;;;14.73;13.53;;;;;;;-1.26;62.06;98754.75;4104139;28;20250;-48
2022/03/04 02:25:14;;;;;;;14.77;13.47;;;;;;;-1.28;62.02;98759.47;4107956;28;20223;-48
2022/03/04 02:27:15;;;;;;;14.13;12.80;;;;;;;-1.34;62.59;98757.47;4120267;28;20357;-48
2022/03/04 02:29:17;;;;;;;15.93;14.63;;;;;;;-1.39;62.76;98760.66;4121714;28;20209;-48
2022/03/04 02:31:20;;;;;;;14.37;13.10;;;;;;;-1.48;62.31;98760.84;4118961;28;20829;-49
2022/03/04 02:33:22;;;;;;;14.97;13.77;;;;;;;-1.51;62.74;98766.53;4109479;28;20215;-48
2022/03/04 02:35:24;;;;;;;15.47;14.10;;;;;;;-1.51;62.75;98766.53;4124847;28;20206;-49
2022/03/04 02:37:25;;;;;;;14.53;13.33;;;;;;;-1.51;62.98;98761.16;4116280;28;20214;-48
2022/03/04 02:39:27;;;;;;;19.60;14.45;;;;;;;-1.51;62.99;98756.63;4133498;28;20315;-48
2022/03/04 02:41:29;;;;;;;13.20;12.00;;;;;;;-1.51;62.70;98755.78;4106239;28;20578;-48
2022/03/04 02:43:31;;;;;;;15.87;14.53;;;;;;;-1.48;62.61;98750.09;4135826;28;20210;-49
2022/03/04 02:45:33;;;;;;;13.63;12.57;;;;;;;-1.53;62.90;98747.91;4120991;28;20214;-48
2022/03/04 02:47:34;;;;;;;14.17;12.97;;;;;;;-1.55;62.92;98755.28;4122676;28;20586;-48
2022/03/04 02:49:36;;;;;;;14.50;13.20;;;;;;;-1.52;62.88;98756.81;4127126;28;20210;-48
2022/03/04 02:51:39;;;;;;;15.27;13.77;;;;;;;-1.54;63.00;98751.59;4136582;28;20205;-48
2022/03/04 02:53:40;;;;;;;15.07;13.10;;;;;;;-1.46;62.80;98754.28;4104244;28;20322;-48
2022/03/04 02:55:42;;;;;;;14.13;12.83;;;;;;;-1.47;62.93;98755.28;4121880;28;20206;-48
2022/03/04 02:57:45;;;;;;;15.60;14.20;;;;;;;-1.56;63.41;98747.41;4119018;28;20729;-47
2022/03/04 02:59:47;;;;;;;13.67;12.37;;;;;;;-1.57;63.32;98751.09;4104620;28;20206;-48
2022/03/04 03:01:49;;;;;;;19.43;14.03;;;;;;;-1.60;63.54;98754.13;4120062;28;20240;-48
2022/03/04 03:03:51;;;;;;;15.43;14.17;;;;;;;-1.56;63.71;98752.75;4101195;28;20246;-48
2022/03/04 03:05:53;;;;;;;15.73;14.40;;;;;;;-1.57;63.42;98745.72;4107982;28;20287;-48
2022/03/04 03:07:55;;;;;;;14.47;13.17;;;;;;;-1.62;63.36;98745.41;4110361;28;20223;-48
2022/03/04 03:09:57;;;;;;;14.60;13.20;;;;;;;-1.65;63.05;98743.91;4121741;28;20199;-48
2022/03/04 03:11:58;;;;;;;13.93;12.07;;;;;;;-1.70;63.66;98737.34;4112219;28;20214;-48
2022/03/04 03:14:00;;;;;;;16.70;15.20;;;;;;;-1.67;63.51;98742.41;4112490;28;20336;-48
2022/03/04 03:16:02;;;;;;;13.70;12.57;;;;;;;-1.76;63.68;98746.91;4121400;28;20211;-49
2022/03/04 03:18:04;;;;;;;14.80;13.53;;;;;;;-1.76;63.63;98740.69;4116742;28;20293;-47
2022/03/04 03:20:07;;;;;;;14.27;13.07;;;;;;;-1.80;63.71;98744.75;4112235;28;20873;-48
2022/03/04 03:22:09;;;;;;;15.30;13.77;;;;;;;-1.80;63.68;98739.38;4137364;28;20209;-48
2022/03/04 03:24:10;;;;;;;13.60;12.40;;;;;;;-1.83;63.32;98734.34;4137938;28;20218;-49
2022/03/04 03:26:12;;;;;;;15.40;13.43;;;;;;;-1.86;64.13;98745.41;4112219;28;20269;-48
2022/03/04 03:28:14;;;;;;;13.97;12.77;;;;;;;-1.85;63.90;98747.94;4133192;28;20229;-48
2022/03/04 03:30:15;;;;;;;13.93;12.70;;;;;;;-1.86;64.28;98745.41;4135443;28;20209;-48
2022/03/04 03:32:17;;;;;;;15.80;14.50;;;;;;;-1.88;64.21;98747.44;4109305;28;20211;-48
2022/03/04 03:34:19;;;;;;;15.23;13.77;;;;;;;-1.87;63.89;98741.06;4122208;28;20211;-48
2022/03/04 03:36:21;;;;;;;14.30;13.10;;;;;;;-1.87;64.03;98738.38;4120218;28;20222;-48
2022/03/04 03:38:23;;;;;;;15.17;13.77;;;;;;;-1.76;63.87;98738.00;4116167;28;20280;-48
2022/03/04 03:40:25;;;;;;;16.63;14.50;;;;;;;-1.84;64.09;98738.03;4133685;28;20802;-48
2022/03/04 03:42:27;;;;;;;13.30;12.13;;;;;;;-1.88;64.07;98742.06;4118807;28;20557;-48
2022/03/04 03:44:29;;;;;;;14.63;13.43;;;;;;;-1.88;63.68;98737.53;4137972;28;20214;-48
2022/03/04 03:46:31;;;;;;;14.63;13.27;;;;;;;-1.94;63.90;98732.00;4111825;28;20218;-47
2022/03/04 03:48:33;;;;;;;15.70;14.30;;;;;;;-1.98;64.28;98736.00;4134327;28;20724;-48
2022/03/04 03:50:38;;;;;;;14.30;13.13;;;;;;;-2.03;64.48;98738.34;4118592;28;20254;-48
2022/03/04 03:52:40;;;;;;;16.87;15.53;;;;;;;-2.04;64.48;98742.03;4103925;28;20242;-48
2022/03/04 03:54:41;;;;;;;16.17;14.43;;;;;;;-2.02;64.10;98745.41;4136499;28;20206;-47
2022/03/04 03:56:43;;;;;;;15.57;14.17;;;;;;;-2.01;64.41;98742.53;4108532;28;20214;-47
2022/03/04 03:58:45;;;;;;;14.97;13.67;;;;;;;-2.02;64.32;98740.03;4122164;28;20261;-47
2022/03/04 04:00:47;;;;;;;15.17;13.60;;;;;;;-2.05;64.29;98735.84;4118894;28;20312;-47
2022/03/04 04:02:49;;;;;;;14.80;13.50;;;;;;;-2.08;64.25;98744.19;4096417;28;20267;-47
2022/03/04 04:04:51;;;;;;;16.03;14.83;;;;;;;-2.03;64.48;98730.31;4135878;28;20563;-47
2022/03/04 04:06:52;;;;;;;14.33;12.93;;;;;;;-2.06;64.14;98730.66;4118807;28;20218;-48
2022/03/04 04:08:54;;;;;;;13.93;12.80;;;;;;;-2.08;64.44;98730.81;4135256;28;20264;-48
2022/03/04 04:10:56;;;;;;;16.37;15.00;;;;;;;-2.08;64.54;98735.34;4119847;28;20652;-47
2022/03/04 04:12:57;;;;;;;14.93;13.47;;;;;;;-2.10;64.56;98740.00;4120974;28;20217;-47
2022/03/04 04:14:59;;;;;;;15.73;14.33;;;;;;;-2.15;64.41;98739.69;4134827;28;20213;-48
2022/03/04 04:17:01;;;;;;;15.47;13.90;;;;;;;-2.21;64.89;98735.00;4123785;28;20230;-48
2022/03/04 04:19:04;;;;;;;15.20;13.80;;;;;;;-2.19;64.91;98743.69;4120611;28;20278;-47
2022/03/04 04:21:06;;;;;;;15.63;14.33;;;;;;;-2.23;64.78;98739.66;4120804;28;20237;-48
2022/03/04 04:23:08;;;;;;;15.70;14.13;;;;;;;-2.25;65.06;98745.19;4118020;28;20257;-48
2022/03/04 04:25:09;;;;;;;14.97;13.77;;;;;;;-2.27;64.65;98746.34;4110713;28;20218;-48
2022/03/04 04:27:11;;;;;;;16.43;14.73;;;;;;;-2.29;64.71;98748.34;4123311;28;20211;-48
2022/03/04 04:29:13;;;;;;;14.07;12.67;;;;;;;-2.32;64.55;98746.00;4135318;28;20248;-48
2022/03/04 04:31:15;;;;;;;14.93;13.57;;;;;;;-2.29;64.98;98738.47;4110738;28;20266;-47
2022/03/04 04:33:17;;;;;;;14.00;12.80;;;;;;;-2.29;64.27;98742.97;4121077;28;20697;-47
2022/03/04 04:35:24;;;;;;;15.83;14.27;;;;;;;-2.26;64.71;98740.00;4108277;28;20577;-48
2022/03/04 04:37:26;;;;;;;16.77;14.23;;;;;;;-2.23;64.83;98755.72;4131440;28;20220;-48
2022/03/04 04:39:28;;;;;;;15.43;14.07;;;;;;;-2.21;64.66;98751.06;4134667;28;20206;-47
2022/03/04 04:41:29;;;;;;;15.77;14.17;;;;;;;-2.20;64.79;98747.38;4109431;28;20257;-48
2022/03/04 04:43:31;;;;;;;15.50;13.70;;;;;;;-2.15;64.83;98750.41;4121994;28;20652;-47
2022/03/04 04:45:33;;;;;;;15.33;14.03;;;;;;;-2.21;64.75;98745.69;4135097;28;20217;-47
2022/03/04 04:47:35;;;;;;;16.17;14.87;;;;;;;-2.22;64.85;98747.53;4132860;28;20668;-48
2022/03/04 04:49:37;;;;;;;15.60;14.10;;;;;;;-2.22;64.93;98749.41;4119952;28;20221;-48
2022/03/04 04:51:38;;;;;;;15.50;14.20;;;;;;;-2.21;64.93;98746.53;4118338;28;20257;-48
2022/03/04 04:53:40;;;;;;;15.63;14.43;;;;;;;-2.24;64.65;98746.88;4111485;28;20207;-48
2022/03/04 04:55:42;;;;;;;15.27;13.93;;;;;;;-2.22;65.12;98744.84;4110170;28;20245;-48
2022/03/04 04:57:44;;;;;;;15.27;13.87;;;;;;;-2.21;65.03;98751.06;4116605;28;20777;-48
2022/03/04 04:59:46;;;;;;;14.90;13.50;;;;;;;-2.24;65.24;98757.59;4109945;28;20214;-47
2022/03/04 05:01:47;;;;;;;15.30;13.83;;;;;;;-2.30;65.01;98746.66;4103762;28;20271;-47
2022/03/04 05:03:49;;;;;;;15.97;14.37;;;;;;;-2.34;64.92;98751.53;4105093;28;20256;-47
2022/03/04 05:05:55;;;;;;;15.20;13.90;;;;;;;-2.38;64.84;98754.69;4120068;28;20261;-48
2022/03/04 05:07:56;;;;;;;15.30;14.10;;;;;;;-2.44;64.81;98758.03;4133311;28;20230;-47
2022/03/04 05:09:58;;;;;;;15.33;13.80;;;;;;;-2.47;64.97;98761.03;4103378;28;20783;-48
2022/03/04 05:12:00;;;;;;;16.53;15.10;;;;;;;-2.51;64.79;98762.34;4121759;28;20211;-47
2022/03/04 05:14:01;;;;;;;16.43;15.00;;;;;;;-2.51;65.01;98771.25;4120002;28;20218;-48
2022/03/04 05:16:03;;;;;;;14.47;13.17;;;;;;;-2.49;64.92;98773.72;4103326;28;20211;-48
2022/03/04 05:18:06;;;;;;;21.30;15.83;;;;;;;-2.46;65.04;98774.28;4100736;28;20321;-47
2022/03/04 05:20:08;;;;;;;16.50;15.20;;;;;;;-2.43;65.34;98779.28;4106353;28;20218;-47
2022/03/04 05:22:09;;;;;;;16.43;15.03;;;;;;;-2.42;65.08;98780.16;4118179;28;20614;-47
2022/03/04 05:24:12;;;;;;;17.03;14.60;;;;;;;-2.44;64.93;98792.84;4119469;28;20207;-47
2022/03/04 05:26:13;;;;;;;17.77;16.17;;;;;;;-2.44;65.20;98792.84;4115044;28;20221;-47
2022/03/04 05:28:15;;;;;;;16.23;14.13;;;;;;;-2.49;64.70;98787.97;4118946;28;20227;-48
2022/03/04 05:30:17;;;;;;;16.17;13.37;;;;;;;-2.50;65.32;98798.84;4119779;28;20257;-47
2022/03/04 05:32:19;;;;;;;15.03;13.73;;;;;;;-2.49;64.76;98795.16;4135240;28;20198;-47
2022/03/04 05:34:20;;;;;;;16.73;14.97;;;;;;;-2.54;64.99;98798.31;4120157;28;20226;-47
2022/03/04 05:36:23;;;;;;;15.40;14.07;;;;;;;-2.57;65.08;98808.53;4135941;28;20231;-47
2022/03/04 05:38:24;;;;;;;16.77;15.27;;;;;;;-2.56;64.85;98796.81;4110593;28;20243;-47
2022/03/04 05:40:26;;;;;;;15.13;13.93;;;;;;;-2.60;64.95;98803.50;4110117;28;20582;-47
2022/03/04 05:42:28;;;;;;;15.47;13.97;;;;;;;-2.70;64.91;98797.41;4134858;28;20249;-48
2022/03/04 05:44:29;;;;;;;16.33;14.83;;;;;;;-2.73;65.04;98798.56;4111283;28;20219;-47
2022/03/04 05:46:32;;;;;;;23.07;13.87;;;;;;;-2.77;64.83;98801.72;4121596;28;20206;-47
2022/03/04 05:48:34;;;;;;;16.83;15.50;;;;;;;-2.85;65.51;98804.38;4120136;28;20320;-48
2022/03/04 05:50:37;;;;;;;15.67;14.17;;;;;;;-2.86;64.83;98808.06;4121784;28;20210;-48
2022/03/04 05:52:38;;;;;;;15.97;14.43;;;;;;;-2.92;65.26;98808.69;4121472;28;20237;-47
2022/03/04 05:54:40;;;;;;;17.40;14.13;;;;;;;-2.83;65.44;98813.06;4107738;28;20303;-47
2022/03/04 05:56:42;;;;;;;16.50;14.50;;;;;;;-2.85;64.88;98815.94;4138752;28;20253;-47
2022/03/04 05:58:43;;;;;;;15.83;14.47;;;;;;;-2.91;64.91;98816.56;4123522;28;20230;-47
2022/03/04 06:00:45;;;;;;;15.80;14.40;;;;;;;-2.94;65.14;98816.88;4112683;28;20674;-48
2022/03/04 06:02:47;;;;;;;17.73;16.17;;;;;;;-2.96;65.64;98818.03;4139306;28;20245;-47
2022/03/04 06:04:49;;;;;;;24.80;16.30;;;;;;;-2.98;65.88;98818.19;4137645;28;20210;-47
2022/03/04 06:06:51;;;;;;;16.50;14.83;;;;;;;-2.98;66.13;98809.31;4137519;28;20580;-47
2022/03/04 06:08:53;;;;;;;22.47;17.57;;;;;;;-2.85;65.67;98825.78;4134941;28;20229;-47
2022/03/04 06:10:54;;;;;;;21.10;15.97;;;;;;;-2.93;66.33;98829.25;4120345;28;20207;-47
2022/03/04 06:12:56;;;;;;;16.73;15.43;;;;;;;-2.91;66.24;98831.78;4106314;28;20425;-48
2022/03/04 06:14:58;;;;;;;16.47;14.63;;;;;;;-2.86;66.06;98835.66;4104407;28;20497;-47
2022/03/04 06:17:00;;;;;;;20.93;15.13;;;;;;;-2.93;66.36;98834.59;4120676;28;20206;-48
2022/03/04 06:19:10;;;;;;;18.37;16.87;;;;;;;-2.92;66.28;98838.13;4139241;28;20236;-47
2022/03/04 06:21:11;;;;;;;17.40;15.30;;;;;;;-2.91;66.35;98848.69;4121445;28;20227;-48
2022/03/04 06:23:13;;;;;;;18.33;16.07;;;;;;;-2.91;66.67;98843.34;4122273;28;20621;-49
2022/03/04 06:25:15;;;;;;;18.13;16.43;;;;;;;-2.90;66.71;98845.00;4122940;28;20214;-48
2022/03/04 06:27:17;;;;;;;23.77;15.70;;;;;;;-2.93;66.60;98847.16;4138585;28;20239;-49
2022/03/04 06:29:18;;;;;;;16.93;15.30;;;;;;;-2.73;66.11;98857.47;4136677;28;20241;-49
2022/03/04 06:31:20;;;;;;;17.00;15.47;;;;;;;-2.79;66.28;98854.59;4122474;28;20205;-48
2022/03/04 06:33:35;;;;;;;16.70;15.03;;;;;;;-2.81;65.90;98859.28;4112983;28;20207;-48
2022/03/04 06:35:36;;;;;;;17.97;16.10;;;;;;;-2.85;66.24;98852.56;4103063;28;20215;-48
2022/03/04 06:37:38;;;;;;;22.60;17.80;;;;;;;-2.85;66.67;98847.22;4113107;28;20773;-48
2022/03/04 06:39:40;;;;;;;26.20;16.60;;;;;;;-2.81;66.62;98857.44;4121909;28;20221;-47
2022/03/04 06:41:42;;;;;;;17.10;15.67;;;;;;;-2.77;66.34;98861.47;4113217;28;20768;-47
2022/03/04 06:43:44;;;;;;;18.30;16.47;;;;;;;-2.76;65.96;98862.31;4118928;28;20678;-48
2022/03/04 06:45:47;;;;;;;20.30;16.47;;;;;;;-2.71;65.79;98866.22;4120854;28;20285;-47
2022/03/04 06:47:49;;;;;;;17.40;15.67;;;;;;;-2.71;66.41;98865.34;4119430;28;20230;-47
2022/03/04 06:49:51;;;;;;;17.73;16.03;;;;;;;-2.68;66.74;98867.72;4102894;28;20207;-49
2022/03/04 06:51:52;;;;;;;35.97;19.43;;;;;;;-2.67;66.30;98864.06;4107291;28;20740;-48
2022/03/04 06:53:54;;;;;;;20.10;17.63;;;;;;;-2.64;66.54;98861.03;4118769;28;21238;-48
2022/03/04 06:55:56;;;;;;;19.37;16.30;;;;;;;-2.62;66.38;98870.59;4103095;28;20207;-48
2022/03/04 06:57:58;;;;;;;19.87;17.73;;;;;;;-2.59;65.98;98869.44;4119607;28;20701;-48
2022/03/04 07:00:00;;;;;;;19.97;17.00;;;;;;;-2.56;66.46;98863.75;4120107;28;20210;-48
2022/03/04 07:02:01;;;;;;;22.57;15.67;;;;;;;-2.55;66.08;98865.47;4137657;28;20236;-49
2022/03/04 07:04:04;;;;;;;20.67;17.23;;;;;;;-2.54;66.42;98869.81;4113925;28;20246;-48
2022/03/04 07:06:06;;;;;;;17.73;15.90;;;;;;;-2.50;66.28;98873.84;4112937;28;20214;-48
2022/03/04 07:08:10;;;;;;;18.03;15.87;;;;;;;-2.49;66.20;98875.50;4132882;28;20318;-47
2022/03/04 07:10:12;;;;;;;35.67;16.80;;;;;;;-2.46;66.36;98881.41;4110129;28;20251;-49
2022/03/04 07:12:13;;;;;;;20.40;17.93;;;;;;;-2.40;66.42;98891.47;4103097;28;20684;-49
2022/03/04 07:14:15;;;;;;;19.33;17.33;;;;;;;-2.36;66.30;98889.31;4133882;28;20206;-49
2022/03/04 07:16:17;;;;;;;25.33;17.07;;;;;;;-2.29;66.47;98888.50;4120243;28;20678;-48
2022/03/04 07:18:19;;;;;;;39.57;19.10;;;;;;;-2.26;66.56;98887.34;4113096;28;20238;-48
2022/03/04 07:20:20;;;;;;;22.97;19.23;;;;;;;-2.16;66.80;98888.06;4112262;28;20217;-50
2022/03/04 07:22:22;;;;;;;21.57;18.57;;;;;;;-2.11;67.34;98896.44;4137297;28;20222;-48
2022/03/04 07:24:24;;;;;;;32.17;18.30;;;;;;;-2.07;66.83;98901.31;4120546;28;20206;-48
2022/03/04 07:26:28;;;;;;;23.80;19.97;;;;;;;-2.01;66.79;98897.19;4103774;28;20574;-47
2022/03/04 07:28:30;;;;;;;27.40;20.30;;;;;;;-1.96;68.18;98910.91;4119188;28;20589;-48
2022/03/04 07:30:32;;;;;;;21.07;18.97;;;;;;;-1.88;67.65;98909.09;4109317;28;20262;-48
2022/03/04 07:32:34;;;;;;;20.50;18.50;;;;;;;-1.86;67.59;98900.91;4110928;28;20685;-47
2022/03/04 07:34:36;;;;;;;21.00;18.63;;;;;;;-1.59;67.29;98906.00;4134935;28;20213;-48
2022/03/04 07:36:38;;;;;;;21.43;19.43;;;;;;;-1.01;67.50;98906.75;4103818;28;20242;-50
2022/03/04 07:38:39;;;;;;;24.17;21.73;;;;;;;0.04;67.43;98914.41;4120845;28;20285;-48
2022/03/04 07:40:41;;;;;;;25.93;23.23;;;;;;;0.58;64.87;98914.31;4100939;28;20639;-48
2022/03/04 07:42:44;;;;;;;24.90;21.73;;;;;;;0.71;63.68;98911.88;4106872;28;20227;-47
2022/03/04 07:44:46;;;;;;;23.00;20.73;;;;;;;1.81;63.57;98915.59;4137086;28;20210;-47
2022/03/04 07:46:47;;;;;;;27.60;22.53;;;;;;;2.61;61.91;98917.28;4120100;28;20206;-50
2022/03/04 07:48:49;;;;;;;28.13;23.57;;;;;;;3.11;60.81;98911.81;4134586;28;20249;-46
2022/03/04 07:50:51;;;;;;;25.97;20.77;;;;;;;3.59;58.22;98910.97;4111609;28;20256;-48
2022/03/04 07:52:53;;;;;;;22.83;20.00;;;;;;;3.87;56.24;98913.69;4119935;28;20203;-48
2022/03/04 07:54:54;;;;;;;22.83;20.53;;;;;;;4.35;56.57;98913.53;4121563;28;20710;-50
2022/03/04 07:56:56;;;;;;;23.00;20.80;;;;;;;4.76;54.54;98921.63;4134194;28;20202;-48
2022/03/04 07:58:58;;;;;;;21.27;19.42;;;;;;;5.34;53.55;98921.75;4114499;28;20230;-48
2022/03/04 08:00:59;;;;;;;21.58;19.67;;;;;;;5.90;52.30;98933.94;4095572;28;20210;-49
2022/03/04 08:03:20;;;;;;;22.95;20.77;;;;;;;5.36;52.76;98919.69;4110246;28;20689;-48
2022/03/04 08:05:22;;;;;;;22.27;20.08;;;;;;;6.04;51.65;98924.72;4106750;28;20214;-48
2022/03/04 08:07:24;;;;;;;23.05;20.88;;;;;;;5.46;51.49;98931.81;4137199;28;20664;-50
2022/03/04 08:09:25;;;;;;;21.52;19.70;;;;;;;6.02;51.69;98932.25;4138613;28;20692;-50
2022/03/04 08:11:28;;;;;;;21.63;19.73;;;;;;;6.21;51.12;98936.78;4112048;28;20198;-48
2022/03/04 08:13:30;;;;;;;23.30;19.80;;;;;;;6.75;49.81;98929.13;4105954;28;20214;-50
2022/03/04 08:15:31;;;;;;;23.05;20.55;;;;;;;7.29;48.10;98932.16;4092270;28;20327;-48
2022/03/04 08:17:33;;;;;;;24.85;22.33;;;;;;;7.59;47.49;98927.75;4118140;28;20669;-48
2022/03/04 08:19:36;;;;;;;21.58;19.40;;;;;;;7.72;47.58;98927.66;4110698;28;20734;-48
2022/03/04 08:21:39;;;;;;;20.73;18.90;;;;;;;8.05;46.76;98933.66;4106579;28;20269;-48
2022/03/04 08:23:41;;;;;;;22.75;20.85;;;;;;;8.19;47.25;98937.91;4090169;28;20228;-48
2022/03/04 08:25:44;;;;;;;27.23;21.98;;;;;;;7.65;47.16;98943.22;4106871;28;20226;-48
2022/03/04 08:27:45;;;;;;;21.27;19.52;;;;;;;8.14;46.33;98930.41;4108709;28;20230;-47
2022/03/04 08:29:47;;;;;;;23.38;20.83;;;;;;;8.71;45.59;98935.50;4109937;28;20269;-47
2022/03/04 08:31:49;;;;;;;22.13;20.10;;;;;;;9.08;45.63;98933.56;4113756;28;20281;-47
2022/03/04 08:33:51;;;;;;;22.02;20.02;;;;;;;8.89;45.42;98932.75;4105253;28;20339;-47
2022/03/04 08:35:56;;;;;;;23.90;21.75;;;;;;;8.18;45.30;98934.38;4104062;28;20513;-46
2022/03/04 08:38:00;;;;;;;24.63;22.05;;;;;;;8.05;46.25;98937.22;4088202;28;20242;-47
2022/03/04 08:40:04;;;;;;;24.73;21.75;;;;;;;8.10;46.88;98936.53;4107646;28;20241;-46
2022/03/04 08:42:10;;;;;;;21.92;19.75;;;;;;;8.45;45.71;98945.84;4128717;28;20233;-47
2022/03/04 08:44:12;;;;;;;22.25;20.25;;;;;;;8.70;45.87;98941.19;4120612;28;20224;-48
2022/03/04 08:46:14;;;;;;;23.88;21.63;;;;;;;8.67;44.70;98933.44;4134432;28;20210;-46
2022/03/04 08:48:16;;;;;;;23.88;21.55;;;;;;;9.35;44.99;98937.59;4107464;28;20304;-46
2022/03/04 08:50:18;;;;;;;23.08;21.08;;;;;;;9.37;44.35;98936.31;4105715;28;20234;-47
2022/03/04 08:52:19;;;;;;;22.20;20.27;;;;;;;9.25;44.40;98946.34;4122471;28;20233;-46
2022/03/04 08:54:21;;;;;;;22.45;20.48;;;;;;;9.69;44.66;98948.63;4104970;28;20211;-48
2022/03/04 08:56:23;;;;;;;22.50;20.55;;;;;;;10.48;43.24;98948.16;4103405;28;20647;-48
2022/03/04 08:58:25;;;;;;;24.20;21.67;;;;;;;9.87;43.09;98942.25;4109004;28;20725;-47
2022/03/04 09:00:29;;;;;;;22.70;20.70;;;;;;;9.43;44.92;98945.47;4088326;28;20266;-46
2022/03/04 09:02:31;;;;;;;22.67;20.42;;;;;;;8.95;45.54;98939.19;4110572;28;20258;-46
2022/03/04 09:04:33;;;;;;;25.98;23.60;;;;;;;9.00;45.90;98956.53;4092957;28;20212;-47
2022/03/04 09:06:35;;;;;;;24.08;21.98;;;;;;;9.52;45.75;98949.53;4108313;28;20261;-47
2022/03/04 09:08:37;;;;;;;24.15;22.00;;;;;;;10.12;44.12;98951.09;4111411;28;20226;-46
2022/03/04 09:10:38;;;;;;;24.73;22.25;;;;;;;9.80;43.90;98942.34;4123055;28;20297;-47
2022/03/04 09:12:41;;;;;;;23.92;21.42;;;;;;;10.30;43.26;98948.25;4107381;28;20211;-47
2022/03/04 09:14:42;;;;;;;24.27;22.15;;;;;;;9.85;43.08;98949.84;4110933;28;20652;-47
2022/03/04 09:16:44;;;;;;;24.42;21.52;;;;;;;9.73;43.93;98941.63;4092138;28;20204;-47
2022/03/04 09:18:48;;;;;;;24.27;22.02;;;;;;;10.13;43.13;98936.34;4105016;28;20602;-47
2022/03/04 09:20:49;;;;;;;25.23;22.85;;;;;;;9.87;43.18;98939.53;4089263;28;20208;-47
2022/03/04 09:22:52;;;;;;;24.50;22.50;;;;;;;10.10;43.12;98948.63;4107946;28;20227;-47